Kota Bharu/Sultan Ismail Petra Airport

Airport
ICAO code: 
WMKC
IATA Code: 
KBR
Summary
ICAO Region: 
APAC
Territory: 
Location: 
Pengkalan Chepa, Kelantan
Serving: 
Kota Bharu
Elevation: 
16 ft
Coordinates: 
Aerial View: 
6° 10' 5.176" N, 102° 17' 36.642" E
Metar
Observation
WMKC 271800Z 00000KT 8000 FEW020 27/25 Q1008
Station
Kota Bharu
Date/Time
2022-05-27 18:00:00
Wind direction
Wind speed
00 kts
Lowest cloud amount
few clouds
Temperature
27°C
Dew point
25°C
Humidity
88%
QNH
1008 hPa
Weather condition
n/a

Sultan Ismail Petra Airport is an airport that operates in Kota Bharu, a city in the state of Kelantan in Malaysia.

Climatology

Tropical Rainforest climate (Köppen climate classification Af) - almost no distinct seasons, average daily temperature around 27°C throughout the year. Extensive cloud cover and heavy rainfall prevent temperatures from rising much over 33°C. The diurnal temperature change is between 2°C and 5°C which is greater than the annual temperature range of 2°C. Rainfall is heavy and is usually convectional and in the afternoon.

Runways

Designator Length Width Surface Rops
10/28 2128 46 ASP Yes/Yes
Airport map: 
Aerial View: 

SKYbrary Partners:

Safety knowledge contributed by: